createdAt,value
2023-05-15T00:00:19.499Z,97.9015
2023-05-15T00:01:19.746Z,98.0042
2023-05-15T00:02:20.124Z,98.0756
2023-05-15T00:03:20.512Z,98.0183
2023-05-15T00:04:20.961Z,98.0199
2023-05-15T00:05:22.051Z,98.0422
2023-05-15T00:06:22.341Z,98.0516
2023-05-15T00:07:23.253Z,98.0479
2023-05-15T00:08:24.194Z,98.1202
2023-05-15T00:09:24.512Z,98.1681
2023-05-15T00:10:25.456Z,98.2244
2023-05-15T00:11:25.788Z,98.2881
2023-05-15T00:12:26.110Z,98.3409
2023-05-15T00:13:27.253Z,98.4113
2023-05-15T00:14:27.494Z,98.4658
2023-05-15T00:16:28.955Z,98.5144
2023-05-15T00:17:29.268Z,98.5677
2023-05-15T00:19:31.102Z,98.6387
2023-05-15T00:20:32.183Z,98.5704
2023-05-15T00:21:33.107Z,98.4606
2023-05-15T00:22:34.248Z,98.3292
2023-05-15T00:23:34.502Z,98.2769
2023-05-15T00:24:35.591Z,98.2589
2023-05-15T00:25:36.529Z,98.2279
2023-05-15T00:26:38.190Z,98.1358
2023-05-15T00:27:39.312Z,97.8579
2023-05-15T00:28:40.197Z,97.7904
2023-05-15T00:29:41.082Z,97.7619
2023-05-15T00:30:41.363Z,97.8028
2023-05-15T00:31:42.300Z,97.4773
2023-05-15T00:32:43.843Z,97.2576
2023-05-15T00:33:44.506Z,97.1436
2023-05-15T00:34:45.453Z,97.2380
2023-05-15T00:35:46.438Z,97.3256
2023-05-15T00:36:46.698Z,97.2652
2023-05-15T00:37:47.736Z,97.2847
2023-05-15T00:38:48.649Z,97.3013
2023-05-15T00:39:48.961Z,97.1826
2023-05-15T00:40:49.847Z,97.0844
2023-05-15T00:41:50.762Z,97.2580
2023-05-15T00:42:51.077Z,97.3542
2023-05-15T00:43:52.100Z,97.4228
2023-05-15T00:44:53.023Z,97.5077
2023-05-15T00:45:53.352Z,97.5954
2023-05-15T00:46:54.385Z,97.6158
2023-05-15T00:47:54.739Z,97.6742
2023-05-15T00:48:55.117Z,97.6609
2023-05-15T00:49:56.088Z,97.7160
2023-05-15T00:50:56.365Z,97.7343
2023-05-15T00:51:56.682Z,97.7806
2023-05-15T00:52:56.956Z,97.8211
2023-05-15T00:53:57.275Z,97.7172
2023-05-15T00:55:58.626Z,97.4567
2023-05-15T00:56:59.097Z,97.4324
2023-05-15T00:58:00.179Z,97.1956
2023-05-15T00:59:01.034Z,96.7067
2023-05-15T01:00:01.984Z,96.7066
2023-05-15T01:01:02.257Z,96.8554
2023-05-15T01:02:02.555Z,96.8533
2023-05-15T01:03:02.860Z,96.9089
2023-05-15T01:04:03.802Z,96.8939
2023-05-15T01:05:04.746Z,96.9115
2023-05-15T01:06:05.043Z,96.6580
2023-05-15T01:07:06.092Z,96.5481
2023-05-15T01:08:07.252Z,95.1765
2023-05-15T01:09:07.538Z,94.4769
2023-05-15T01:10:08.525Z,94.5674
2023-05-15T01:11:09.535Z,94.9855
2023-05-15T01:12:09.813Z,95.2416
2023-05-15T01:13:10.862Z,95.7970
2023-05-15T01:14:11.890Z,96.2424
2023-05-15T01:15:13.085Z,96.3901
2023-05-15T01:16:13.377Z,96.5443
2023-05-15T01:17:14.380Z,96.7143
2023-05-15T01:18:15.829Z,96.8344
2023-05-15T01:19:16.258Z,96.6803
2023-05-15T01:21:17.729Z,95.7228
2023-05-15T01:22:18.047Z,96.1382
2023-05-15T01:23:18.343Z,96.4098
2023-05-15T01:24:18.607Z,96.5759
2023-05-15T01:26:20.136Z,96.9900
2023-05-15T01:27:21.325Z,97.1050
2023-05-15T01:28:22.245Z,97.1217
2023-05-15T01:29:23.190Z,97.1073
2023-05-15T01:30:23.525Z,97.0961
2023-05-15T01:31:24.565Z,96.8892
2023-05-15T01:32:25.823Z,96.3176
2023-05-15T01:33:26.167Z,95.0430
2023-05-15T01:34:27.104Z,94.6916
2023-05-15T01:35:27.592Z,95.1885
2023-05-15T01:36:28.030Z,95.7754
2023-05-15T01:37:29.206Z,96.0435
2023-05-15T01:38:30.178Z,96.2414
2023-05-15T01:40:31.708Z,96.4276
2023-05-15T01:41:32.760Z,96.2975
2023-05-15T01:43:34.316Z,96.4739
2023-05-15T01:44:34.993Z,96.1612
2023-05-15T01:45:36.480Z,95.7615
2023-05-15T01:46:37.537Z,95.5135
2023-05-15T01:47:37.831Z,94.6738
2023-05-15T01:48:38.769Z,95.1703
2023-05-15T01:49:39.112Z,95.5584
2023-05-15T01:50:39.395Z,95.6515
2023-05-15T01:51:39.666Z,95.9372
2023-05-15T01:52:39.943Z,95.8457
2023-05-15T01:53:40.234Z,95.6967
2023-05-15T01:54:40.499Z,95.6309
2023-05-15T01:55:41.502Z,95.7388
2023-05-15T01:56:41.763Z,95.9283
2023-05-15T01:57:42.688Z,96.1139
2023-05-15T01:58:43.575Z,96.2816
2023-05-15T01:59:43.843Z,96.0976
2023-05-15T02:00:44.858Z,95.9667
2023-05-15T02:01:45.759Z,96.2861
2023-05-15T02:02:46.156Z,96.8734
2023-05-15T02:04:47.616Z,97.2762
2023-05-15T02:05:47.909Z,97.4612
2023-05-15T02:06:48.823Z,97.6155
2023-05-15T02:07:49.158Z,97.7474
2023-05-15T02:08:49.446Z,97.8140
2023-05-15T02:09:49.706Z,97.8947
2023-05-15T02:10:49.983Z,97.9741
2023-05-15T02:11:50.871Z,98.0212
2023-05-15T02:12:51.701Z,98.1050
2023-05-15T02:13:52.027Z,98.2513
2023-05-15T02:14:52.969Z,98.3900
2023-05-15T02:15:53.891Z,98.5134
2023-05-15T02:16:54.208Z,98.5840
2023-05-15T02:17:55.269Z,98.6500
2023-05-15T02:18:55.645Z,98.7185
2023-05-15T02:19:55.906Z,98.7759
2023-05-15T02:20:56.722Z,98.8330
2023-05-15T02:21:57.549Z,98.8624
2023-05-15T02:22:58.405Z,98.8746
2023-05-15T02:23:58.689Z,98.8624
2023-05-15T02:24:59.643Z,98.8447
2023-05-15T02:26:00.497Z,98.8449
2023-05-15T02:27:00.774Z,98.8411
2023-05-15T02:28:01.705Z,98.7962
2023-05-15T02:29:02.571Z,98.7101
2023-05-15T02:30:03.460Z,98.4964
2023-05-15T02:32:04.999Z,98.2636
2023-05-15T02:33:05.916Z,98.2719
2023-05-15T02:34:06.167Z,98.2934
2023-05-15T02:35:06.439Z,98.2434
2023-05-15T02:36:06.719Z,98.2360
2023-05-15T02:37:07.627Z,98.0763
2023-05-15T02:38:07.918Z,97.9629
2023-05-15T02:40:09.712Z,97.9187
2023-05-15T02:41:10.009Z,97.9024
2023-05-15T02:42:10.609Z,98.0416
2023-05-15T02:43:11.562Z,98.1246
2023-05-15T02:44:11.884Z,98.1767
2023-05-15T02:45:12.183Z,98.2350
2023-05-15T02:46:12.550Z,98.2978
2023-05-15T02:47:12.882Z,98.3680
2023-05-15T02:48:13.756Z,98.2592
2023-05-15T02:49:14.103Z,97.9832
2023-05-15T02:51:14.587Z,97.9437
2023-05-15T02:52:14.871Z,97.9874
2023-05-15T02:53:15.728Z,98.0663
2023-05-15T02:54:16.504Z,98.0697
2023-05-15T02:55:16.816Z,98.1409
2023-05-15T02:56:18.424Z,98.2577
2023-05-15T02:57:19.965Z,98.3380
2023-05-15T02:58:20.846Z,98.3591
2023-05-15T02:59:21.159Z,98.3669
2023-05-15T03:00:21.977Z,98.4258
2023-05-15T03:01:22.967Z,98.4670
2023-05-15T03:03:24.234Z,98.4694
2023-05-15T03:04:25.135Z,98.4742
2023-05-15T03:05:26.235Z,98.5054
2023-05-15T03:06:26.962Z,98.5804
2023-05-15T03:07:27.247Z,98.6891
2023-05-15T03:08:27.531Z,98.7707
2023-05-15T03:09:27.783Z,98.8563
2023-05-15T03:10:28.050Z,98.9072
2023-05-15T03:11:28.340Z,98.9545
2023-05-15T03:13:29.258Z,99.0008
2023-05-15T03:14:29.757Z,98.9147
2023-05-15T03:15:30.108Z,98.8598
2023-05-15T03:16:30.430Z,98.8154
2023-05-15T03:17:30.704Z,98.7705
2023-05-15T03:18:30.976Z,98.7678
2023-05-15T03:19:31.784Z,98.7993
2023-05-15T03:20:32.742Z,98.8275
2023-05-15T03:21:33.023Z,98.8534
2023-05-15T03:22:33.896Z,98.8348
2023-05-15T03:23:35.776Z,98.6553
2023-05-15T03:24:35.281Z,98.5593
2023-05-15T03:25:36.382Z,98.5811
2023-05-15T03:26:39.894Z,98.5994
2023-05-15T03:27:37.470Z,98.5969
2023-05-15T03:28:38.757Z,98.6253
2023-05-15T03:29:40.072Z,98.6597
2023-05-15T03:30:40.986Z,98.6882
2023-05-15T03:31:41.291Z,98.6816
2023-05-15T03:32:42.237Z,98.5861
2023-05-15T03:33:43.125Z,98.5693
2023-05-15T03:34:43.430Z,98.5636
2023-05-15T03:35:44.308Z,98.4714
2023-05-15T03:36:44.601Z,98.3858
2023-05-15T03:37:44.972Z,98.3880
2023-05-15T03:38:45.224Z,98.4314
2023-05-15T03:39:45.490Z,98.4581
2023-05-15T03:40:46.354Z,98.5089
2023-05-15T03:41:46.625Z,98.5539
2023-05-15T03:42:46.946Z,98.5663
2023-05-15T03:43:47.846Z,98.5201
2023-05-15T03:44:48.127Z,98.5093
2023-05-15T03:45:49.004Z,98.5116
2023-05-15T03:46:49.905Z,98.5223
2023-05-15T03:47:50.310Z,98.5262
2023-05-15T03:48:51.287Z,98.4636
2023-05-15T03:49:52.728Z,98.4104
2023-05-15T03:50:53.015Z,98.4122
2023-05-15T03:51:53.542Z,98.4121
2023-05-15T03:52:53.850Z,98.4641
2023-05-15T03:55:55.167Z,98.4301
2023-05-15T03:56:55.439Z,98.4456
2023-05-15T03:57:55.785Z,98.4323
2023-05-15T03:58:56.306Z,98.4224
2023-05-15T03:59:56.628Z,98.4158
2023-05-15T04:00:56.918Z,98.3977
2023-05-15T04:03:58.203Z,98.3688
2023-05-15T04:04:58.495Z,97.9557
2023-05-15T04:06:58.913Z,97.0259
2023-05-15T04:07:59.155Z,97.0502
2023-05-15T04:08:59.429Z,97.1038
2023-05-15T04:09:59.711Z,97.2200
2023-05-15T04:11:00.676Z,97.4330
2023-05-15T04:12:00.972Z,97.5942
2023-05-15T04:13:01.442Z,97.7565
2023-05-15T04:14:01.930Z,97.8122
2023-05-15T04:15:02.584Z,97.7870
2023-05-15T04:16:03.195Z,97.7809
2023-05-15T04:17:03.470Z,97.8349
2023-05-15T04:18:04.660Z,97.9313
2023-05-15T04:19:06.295Z,97.9000
2023-05-15T04:20:07.251Z,97.8847
2023-05-15T04:21:07.746Z,97.8730
2023-05-15T04:22:08.028Z,97.5926
2023-05-15T04:23:08.388Z,97.3487
2023-05-15T04:24:08.641Z,97.0432
2023-05-15T04:26:09.631Z,96.6539
2023-05-15T04:27:09.986Z,96.5274
2023-05-15T04:28:11.207Z,96.4003
2023-05-15T04:29:12.137Z,96.4711
2023-05-15T04:30:12.408Z,96.3146
2023-05-15T04:31:13.394Z,96.2432
2023-05-15T04:32:14.982Z,96.1762
2023-05-15T04:33:15.354Z,95.4109
2023-05-15T04:34:16.205Z,95.2266
2023-05-15T04:35:16.509Z,95.6366
2023-05-15T04:37:17.671Z,95.5414
2023-05-15T04:38:17.917Z,95.6612
2023-05-15T04:39:18.805Z,96.0150
2023-05-15T04:40:19.160Z,96.0625
2023-05-15T04:41:19.548Z,96.1519
2023-05-15T04:42:20.481Z,95.9992
2023-05-15T04:43:21.853Z,95.9902
2023-05-15T04:44:22.165Z,95.9405
2023-05-15T04:45:23.256Z,95.9385
2023-05-15T04:46:24.902Z,95.9849
2023-05-15T04:47:25.275Z,95.9704
2023-05-15T04:48:26.489Z,95.6188
2023-05-15T04:49:26.837Z,95.5775
2023-05-15T04:50:27.236Z,95.5965
2023-05-15T04:51:28.222Z,95.5093
2023-05-15T04:52:29.358Z,95.5270
2023-05-15T04:53:29.705Z,95.8613
2023-05-15T04:54:30.696Z,96.0209
2023-05-15T04:55:31.805Z,96.0267
2023-05-15T04:57:33.136Z,96.0318
2023-05-15T04:58:33.417Z,95.8498
2023-05-15T04:59:34.422Z,95.6467
2023-05-15T05:00:35.904Z,95.9154
2023-05-15T05:02:36.681Z,96.1576
2023-05-15T05:03:37.057Z,96.0122
2023-05-15T05:04:37.930Z,95.6653
2023-05-15T05:05:38.287Z,95.5143
2023-05-15T05:06:39.781Z,95.5712
2023-05-15T05:07:40.760Z,95.5235
2023-05-15T05:08:41.059Z,95.4671
2023-05-15T05:09:41.375Z,95.2300
2023-05-15T05:10:41.719Z,95.3128
2023-05-15T05:11:42.078Z,95.2863
2023-05-15T05:12:42.431Z,95.6141
2023-05-15T05:13:42.873Z,95.8073
2023-05-15T05:14:43.516Z,95.7910
2023-05-15T05:15:43.896Z,95.7206
2023-05-15T05:16:44.925Z,95.6442
2023-05-15T05:17:45.860Z,95.6265
2023-05-15T05:18:47.043Z,95.5170
2023-05-15T05:19:48.149Z,95.3850
2023-05-15T05:20:48.525Z,95.5874
2023-05-15T05:22:49.407Z,95.7407
2023-05-15T05:23:49.710Z,95.6695
2023-05-15T05:24:50.247Z,95.2105
2023-05-15T05:25:50.570Z,94.9059
2023-05-15T05:26:51.094Z,95.1593
2023-05-15T05:27:51.426Z,95.4086
2023-05-15T05:28:51.741Z,95.4602
2023-05-15T05:29:52.958Z,95.6144
2023-05-15T05:30:53.359Z,95.3904
2023-05-15T05:32:54.886Z,95.4853
2023-05-15T05:33:55.224Z,95.4283
2023-05-15T05:34:56.428Z,95.0447
2023-05-15T05:35:57.949Z,95.1795
2023-05-15T05:36:58.285Z,95.2278
2023-05-15T05:37:59.183Z,95.3169
2023-05-15T05:39:00.222Z,95.0892
2023-05-15T05:40:00.583Z,94.9426
2023-05-15T05:41:01.331Z,94.8178
2023-05-15T05:42:01.941Z,94.9894
2023-05-15T05:43:02.247Z,94.9414
2023-05-15T05:44:03.078Z,95.0161
2023-05-15T05:45:04.312Z,95.0600
2023-05-15T05:46:04.642Z,94.9522
2023-05-15T05:47:05.624Z,94.3406
2023-05-15T05:48:06.581Z,94.1609
2023-05-15T05:49:06.946Z,94.4696
2023-05-15T05:50:07.264Z,94.5163
2023-05-15T05:51:07.589Z,94.7662
2023-05-15T05:52:07.976Z,94.9037
2023-05-15T05:53:08.333Z,94.6694
2023-05-15T05:54:08.679Z,94.8068
2023-05-15T05:55:08.996Z,94.4730
2023-05-15T05:56:09.341Z,94.8298
2023-05-15T05:57:10.116Z,94.6678
2023-05-15T05:58:18.284Z,94.5356
2023-05-15T06:00:11.923Z,94.9106
2023-05-15T06:01:12.253Z,94.8529
2023-05-15T06:02:13.243Z,95.0509
2023-05-15T06:03:14.284Z,94.7031
2023-05-15T06:04:16.273Z,94.9004
2023-05-15T06:05:15.728Z,94.6659
2023-05-15T06:06:16.940Z,94.2704
2023-05-15T06:07:17.312Z,94.3919
2023-05-15T06:08:17.682Z,94.5633
2023-05-15T06:09:18.818Z,94.9344
2023-05-15T06:10:19.116Z,95.0158
2023-05-15T06:11:20.058Z,94.5538
2023-05-15T06:12:22.890Z,94.5734
2023-05-15T06:13:21.724Z,94.8497
2023-05-15T06:14:22.887Z,94.5028
2023-05-15T06:15:23.402Z,93.9619
2023-05-15T06:16:24.466Z,94.3377
2023-05-15T06:17:25.616Z,94.2309
2023-05-15T06:19:27.091Z,94.3397
2023-05-15T06:20:27.495Z,94.6653
2023-05-15T06:22:30.086Z,94.2717
2023-05-15T06:23:31.687Z,94.3022
2023-05-15T06:24:32.051Z,94.4756
2023-05-15T06:25:33.008Z,94.7623
2023-05-15T06:26:34.070Z,95.0147
2023-05-15T06:27:34.449Z,94.9126
2023-05-15T06:28:35.343Z,94.8289
2023-05-15T06:29:36.591Z,94.3528
2023-05-15T06:30:37.016Z,94.4809
2023-05-15T06:31:37.944Z,94.3630
2023-05-15T06:32:39.359Z,94.3356
2023-05-15T06:33:39.741Z,94.3327
2023-05-15T06:34:40.846Z,94.2453
2023-05-15T06:35:41.161Z,93.8358
2023-05-15T06:36:41.961Z,93.9199
2023-05-15T06:37:42.944Z,94.0008
2023-05-15T06:38:43.256Z,93.6539
2023-05-15T06:39:44.238Z,94.0267
2023-05-15T06:40:44.594Z,94.3105
2023-05-15T06:42:45.506Z,93.9356
2023-05-15T06:46:47.332Z,94.8290
2023-05-15T06:47:47.736Z,94.5370
2023-05-15T06:48:48.277Z,94.6703
2023-05-15T06:49:49.076Z,94.9246
2023-05-15T06:50:50.015Z,94.8850
2023-05-15T06:51:50.331Z,94.7283
2023-05-15T06:52:51.294Z,94.9203
2023-05-15T06:53:51.641Z,94.2307
2023-05-15T06:54:52.141Z,94.2282
2023-05-15T06:55:53.116Z,94.4748
2023-05-15T06:56:53.526Z,94.7673
2023-05-15T06:57:53.896Z,94.4150
2023-05-15T06:58:54.824Z,94.5029
2023-05-15T06:59:55.178Z,94.1717
2023-05-15T07:00:56.507Z,93.9184
2023-05-15T07:01:57.257Z,94.1129
2023-05-15T07:02:58.281Z,93.7876
2023-05-15T07:03:59.344Z,93.9799
2023-05-15T07:05:01.846Z,94.0590
2023-05-15T07:06:02.211Z,94.2779
2023-05-15T07:07:03.401Z,94.4309
2023-05-15T07:08:03.727Z,94.4496
2023-05-15T07:09:04.061Z,94.3428
2023-05-15T07:10:04.641Z,93.9767
2023-05-15T07:11:05.064Z,93.5917
2023-05-15T07:14:06.107Z,93.8330
2023-05-15T07:15:07.218Z,93.7414
2023-05-15T07:16:08.120Z,93.4442
2023-05-15T07:17:08.475Z,93.3510
2023-05-15T07:18:09.670Z,93.5977
2023-05-15T07:19:10.675Z,93.7000
2023-05-15T07:20:10.990Z,93.7666
2023-05-15T07:21:11.917Z,93.3109
2023-05-15T07:22:12.435Z,93.0494
2023-05-15T07:23:12.738Z,92.8246
2023-05-15T07:24:14.048Z,92.5290
2023-05-15T07:25:16.833Z,92.5057
2023-05-15T07:30:15.718Z,92.8036
2023-05-15T07:31:16.115Z,93.1223
2023-05-15T07:32:17.306Z,92.9836
2023-05-15T07:33:17.696Z,93.0318
2023-05-15T07:34:18.683Z,93.2441
2023-05-15T07:35:20.254Z,93.7677
2023-05-15T07:36:20.575Z,93.3636
2023-05-15T07:37:21.683Z,93.2003
2023-05-15T07:38:23.507Z,93.3885
2023-05-15T07:39:23.892Z,93.6708
2023-05-15T07:40:25.183Z,93.6432
2023-05-15T07:41:25.516Z,93.8123
2023-05-15T07:42:27.453Z,93.9572
2023-05-15T07:44:26.854Z,93.4831
2023-05-15T07:45:28.383Z,93.8258
2023-05-15T07:47:29.641Z,93.4812
2023-05-15T07:48:30.876Z,94.2707
2023-05-15T07:49:31.770Z,94.6831
2023-05-15T07:50:32.093Z,95.0655
2023-05-15T07:51:32.444Z,94.8990
2023-05-15T07:52:33.310Z,94.3886
2023-05-15T07:53:33.631Z,94.9074
2023-05-15T07:54:34.526Z,94.7606
2023-05-15T07:55:36.031Z,95.3821
2023-05-15T07:56:36.331Z,95.5185
2023-05-15T07:57:37.302Z,95.5286
2023-05-15T07:58:37.672Z,95.6038
2023-05-15T07:59:38.645Z,95.6970
2023-05-15T08:00:39.590Z,96.0853
2023-05-15T08:01:40.873Z,96.2558
2023-05-15T08:02:41.353Z,96.1048
2023-05-15T08:03:42.090Z,96.0225
2023-05-15T08:04:42.464Z,95.8675
2023-05-15T08:06:44.557Z,95.9459
2023-05-15T08:07:45.765Z,95.9487
2023-05-15T08:08:46.117Z,96.2661
2023-05-15T08:09:46.679Z,96.4517
2023-05-15T08:10:47.202Z,96.5371
2023-05-15T08:11:47.860Z,96.4569
2023-05-15T08:12:48.198Z,96.5857
2023-05-15T08:13:48.555Z,96.3814
2023-05-15T08:14:49.150Z,96.1253
2023-05-15T08:15:49.569Z,96.0827
2023-05-15T08:16:49.910Z,95.8267
2023-05-15T08:17:50.306Z,95.7865
2023-05-15T08:19:51.445Z,95.5731
2023-05-15T08:20:51.829Z,95.2146
2023-05-15T08:21:52.892Z,94.9702
2023-05-15T08:22:54.129Z,94.7617
2023-05-15T08:23:54.844Z,94.2119
2023-05-15T08:24:55.970Z,94.0275
2023-05-15T08:25:56.547Z,93.3055
2023-05-15T08:26:57.050Z,93.3976
2023-05-15T08:27:57.588Z,93.2782
2023-05-15T08:28:58.244Z,92.7031
2023-05-15T08:29:58.784Z,92.8860
2023-05-15T08:30:59.162Z,92.3392
2023-05-15T08:31:59.796Z,93.1407
2023-05-15T08:33:00.432Z,92.6292
2023-05-15T08:35:00.949Z,93.0775
2023-05-15T08:36:01.317Z,93.0662
2023-05-15T08:37:01.635Z,92.2097
2023-05-15T08:39:02.943Z,91.3766
2023-05-15T08:40:03.829Z,90.8245
2023-05-15T08:41:04.181Z,90.5617
2023-05-15T08:42:04.864Z,91.2155
2023-05-15T08:43:05.485Z,91.1944
2023-05-15T08:44:05.814Z,92.0169
2023-05-15T08:45:06.758Z,91.2008
2023-05-15T08:46:07.090Z,90.6411
2023-05-15T08:48:07.960Z,90.7609
2023-05-15T08:50:08.550Z,91.2761
2023-05-15T08:51:09.142Z,91.3976
2023-05-15T08:52:09.496Z,91.9324
2023-05-15T08:56:11.698Z,91.3864
2023-05-15T08:57:12.034Z,89.9917
2023-05-15T08:58:13.050Z,89.4279
2023-05-15T08:59:13.406Z,89.7195
2023-05-15T09:00:14.708Z,88.6984
2023-05-15T09:01:15.303Z,89.4675
2023-05-15T09:02:15.625Z,86.9331
2023-05-15T09:03:16.093Z,89.0197
2023-05-15T09:04:16.446Z,89.4937
2023-05-15T09:05:16.812Z,89.9277
2023-05-15T09:06:17.138Z,89.5891
2023-05-15T09:08:17.660Z,89.4616
2023-05-15T09:09:18.051Z,89.5056
2023-05-15T09:10:18.429Z,89.6098
2023-05-15T09:12:19.121Z,89.7268
2023-05-15T09:13:19.489Z,88.0093
2023-05-15T09:14:20.038Z,88.6037
2023-05-15T09:15:20.430Z,89.4120
2023-05-15T09:16:20.793Z,90.4195
2023-05-15T09:17:21.187Z,89.9737
2023-05-15T09:18:21.680Z,90.5521
2023-05-15T09:19:22.070Z,89.7346
2023-05-15T09:20:22.389Z,88.7774
2023-05-15T09:21:22.740Z,89.3197
2023-05-15T09:22:23.097Z,89.3300
2023-05-15T09:23:24.140Z,89.8061
2023-05-15T09:24:24.673Z,90.4521
2023-05-15T09:26:26.229Z,89.8310
2023-05-15T09:27:27.126Z,90.4612
2023-05-15T09:28:28.089Z,92.1349
2023-05-15T09:29:29.115Z,91.7841
2023-05-15T09:31:29.652Z,92.2224
2023-05-15T09:32:30.004Z,92.5447
2023-05-15T09:34:31.573Z,92.4868
2023-05-15T09:35:32.156Z,92.4663
2023-05-15T09:36:33.263Z,92.4973
2023-05-15T09:37:34.470Z,91.9830
2023-05-15T09:38:34.817Z,92.6062
2023-05-15T09:39:36.094Z,92.7835
2023-05-15T09:40:36.488Z,92.7122
2023-05-15T09:41:36.841Z,92.8900
2023-05-15T09:42:38.098Z,92.9115
2023-05-15T09:43:38.498Z,92.8801
2023-05-15T09:46:41.290Z,93.0972
2023-05-15T09:48:42.010Z,94.6258
2023-05-15T09:49:42.392Z,94.7752
2023-05-15T09:50:42.764Z,93.2821
2023-05-15T09:51:43.168Z,92.6687
2023-05-15T09:52:43.531Z,92.9494
2023-05-15T09:53:43.913Z,93.5161
2023-05-15T09:54:45.668Z,92.9512
2023-05-15T09:55:46.960Z,92.4405
2023-05-15T09:57:48.241Z,91.0322
2023-05-15T09:58:48.745Z,91.3393
2023-05-15T09:59:49.565Z,89.4052
2023-05-15T10:00:50.584Z,87.3792
2023-05-15T10:01:51.672Z,85.7168
2023-05-15T10:03:52.339Z,84.7839
2023-05-15T10:04:53.576Z,83.8005
2023-05-15T10:05:54.024Z,82.5003
2023-05-15T10:06:54.999Z,81.9550
2023-05-15T10:07:55.962Z,82.3344
2023-05-15T10:08:57.130Z,85.5212
2023-05-15T10:09:57.502Z,85.2603
2023-05-15T10:10:58.540Z,83.6059
2023-05-15T10:11:59.940Z,83.9011
2023-05-15T10:13:00.305Z,84.6233
2023-05-15T10:14:01.250Z,83.2805
2023-05-15T10:15:02.636Z,83.0981
2023-05-15T10:16:03.065Z,84.8974
2023-05-15T10:17:04.429Z,85.0828
2023-05-15T10:18:05.552Z,84.1706
2023-05-15T10:19:06.010Z,81.5158
2023-05-15T10:20:07.157Z,78.9586
2023-05-15T10:21:08.229Z,81.2192
2023-05-15T10:22:08.642Z,82.8147
2023-05-15T10:23:09.926Z,79.9901
2023-05-15T10:24:10.861Z,81.2335
2023-05-15T10:25:11.317Z,80.1616
2023-05-15T10:27:12.599Z,83.2991
2023-05-15T10:28:12.977Z,83.3643
2023-05-15T10:29:14.014Z,81.4145
2023-05-15T10:30:15.506Z,83.6876
2023-05-15T10:31:16.385Z,82.4955
2023-05-15T10:32:16.824Z,79.6275
2023-05-15T10:33:18.024Z,80.0512
2023-05-15T10:34:18.465Z,78.2365
2023-05-15T10:35:19.546Z,76.5594
2023-05-15T10:36:21.524Z,76.8745
2023-05-15T10:37:23.162Z,79.5087
2023-05-15T10:38:23.591Z,78.7115
2023-05-15T10:39:24.131Z,79.9903
2023-05-15T10:40:24.716Z,79.5447
2023-05-15T10:41:26.482Z,80.6896
2023-05-15T10:42:26.906Z,81.8890
2023-05-15T10:43:28.083Z,82.0953
2023-05-15T10:44:28.704Z,82.2429
2023-05-15T10:45:29.295Z,83.2766
2023-05-15T10:46:29.725Z,82.9156
2023-05-15T10:47:30.140Z,83.0905
2023-05-15T10:48:31.010Z,83.1737
2023-05-15T10:49:31.430Z,83.4904
2023-05-15T10:50:31.870Z,83.6025
2023-05-15T10:51:32.244Z,84.3846
2023-05-15T10:52:32.889Z,84.9352
2023-05-15T10:53:33.313Z,84.1295
2023-05-15T10:54:33.777Z,85.6541
2023-05-15T10:55:34.961Z,85.3117
2023-05-15T10:56:36.454Z,85.7281
2023-05-15T10:57:36.861Z,86.1835
2023-05-15T10:58:37.481Z,86.0981
2023-05-15T10:59:37.960Z,87.7403
2023-05-15T11:00:38.410Z,85.1974
2023-05-15T11:01:39.504Z,86.1986
2023-05-15T11:02:40.272Z,85.5025
2023-05-15T11:03:47.850Z,85.3866
2023-05-15T11:04:42.394Z,84.4694
2023-05-15T11:05:42.899Z,84.5335
2023-05-15T11:07:44.654Z,85.4849
2023-05-15T11:08:45.126Z,85.5688
2023-05-15T11:09:46.231Z,85.7515
2023-05-15T11:10:47.725Z,85.2387
2023-05-15T11:11:48.321Z,86.2041
2023-05-15T11:12:48.710Z,86.0325
2023-05-15T11:13:49.990Z,86.5955
2023-05-15T11:14:51.224Z,86.2459
2023-05-15T11:15:51.637Z,84.7467
2023-05-15T11:16:52.348Z,83.9187
2023-05-15T11:17:53.334Z,83.4211
2023-05-15T11:18:53.816Z,81.1987
2023-05-15T11:19:54.552Z,82.2675
2023-05-15T11:20:54.948Z,83.0716
2023-05-15T11:21:56.059Z,81.7655
2023-05-15T11:22:57.473Z,81.4907
2023-05-15T11:23:58.050Z,82.5526
2023-05-15T11:24:58.993Z,81.7082
2023-05-15T11:26:00.176Z,81.6589
2023-05-15T11:27:01.550Z,83.1338
2023-05-15T11:28:01.981Z,82.5251
2023-05-15T11:29:03.214Z,81.9251
2023-05-15T11:30:03.822Z,83.9510
2023-05-15T11:31:04.484Z,82.3013
2023-05-15T11:32:04.888Z,83.0055
2023-05-15T11:33:05.338Z,78.3370
2023-05-15T11:36:06.307Z,82.2565
2023-05-15T11:39:08.334Z,82.8991
2023-05-15T11:40:09.539Z,83.5822
2023-05-15T11:41:10.792Z,80.4459
2023-05-15T11:42:11.215Z,80.3112
2023-05-15T11:43:12.068Z,82.8439
2023-05-15T11:44:13.079Z,76.8050
2023-05-15T11:45:13.651Z,76.1997
2023-05-15T11:46:14.445Z,76.9128
2023-05-15T11:47:14.906Z,78.8549
2023-05-15T11:48:15.340Z,78.2704
2023-05-15T11:49:16.745Z,76.9232
2023-05-15T11:55:28.466Z,71.1148
2023-05-15T11:56:29.070Z,70.3724
2023-05-15T11:57:29.678Z,66.4013
2023-05-15T11:58:31.104Z,70.9385
2023-05-15T11:59:32.423Z,73.7582
2023-05-15T12:00:34.001Z,72.8496
2023-05-15T12:02:35.137Z,66.0148
2023-05-15T12:03:35.874Z,72.1696
2023-05-15T12:04:37.573Z,69.0939
2023-05-15T12:05:42.348Z,66.2052
2023-05-15T12:06:39.933Z,71.3552
2023-05-15T12:07:40.793Z,73.5163
2023-05-15T12:08:42.123Z,71.7231
2023-05-15T12:09:43.812Z,64.8275
2023-05-15T12:10:44.417Z,66.6783
2023-05-15T12:11:45.941Z,59.2074
2023-05-15T12:12:46.508Z,64.8730
2023-05-15T12:14:48.002Z,65.9656
2023-05-15T12:15:49.210Z,61.6382
2023-05-15T12:16:49.694Z,63.1875
2023-05-15T12:17:50.959Z,65.6227
2023-05-15T12:18:52.000Z,67.2272
2023-05-15T12:19:52.613Z,61.7560
2023-05-15T12:21:55.057Z,64.1855
2023-05-15T12:22:56.792Z,61.5722
2023-05-15T12:24:59.141Z,63.0602
2023-05-15T12:26:00.275Z,65.0262
2023-05-15T12:27:00.901Z,67.3245
2023-05-15T12:28:01.437Z,67.9925
2023-05-15T12:29:02.565Z,68.8768
2023-05-15T12:30:03.876Z,62.5152
2023-05-15T12:31:05.323Z,64.3396
2023-05-15T12:32:05.858Z,60.6081
2023-05-15T12:33:07.123Z,58.0141
2023-05-15T12:34:07.896Z,61.2545
2023-05-15T12:35:08.951Z,66.5095
2023-05-15T12:36:10.039Z,56.1999
2023-05-15T12:37:11.276Z,53.1431
2023-05-15T12:38:12.222Z,56.2590
2023-05-15T12:39:13.419Z,54.4438
2023-05-15T12:40:15.192Z,60.0627
2023-05-15T12:41:16.049Z,63.3460
2023-05-15T12:42:17.245Z,65.7824
2023-05-15T12:43:19.075Z,68.5791
2023-05-15T12:44:20.093Z,64.9699
2023-05-15T12:45:20.552Z,64.6870
2023-05-15T12:46:21.812Z,68.1793
2023-05-15T12:47:22.377Z,68.1437
2023-05-15T12:48:22.915Z,67.3107
2023-05-15T12:49:24.130Z,66.7901
2023-05-15T12:50:25.305Z,68.1452
2023-05-15T12:51:26.676Z,66.3119
2023-05-15T12:52:28.015Z,59.7888
2023-05-15T12:53:29.553Z,65.4449
2023-05-15T12:54:30.866Z,66.5256
2023-05-15T12:55:32.135Z,63.4478
2023-05-15T12:56:32.559Z,64.7675
2023-05-15T12:57:33.703Z,65.7404
2023-05-15T12:58:35.817Z,66.0410
2023-05-15T12:59:36.287Z,60.0726
2023-05-15T13:00:36.854Z,62.2293
2023-05-15T13:01:37.965Z,64.7082
2023-05-15T13:02:40.110Z,66.4627
2023-05-15T13:04:41.813Z,67.7862
2023-05-15T13:05:42.212Z,68.9617
2023-05-15T13:06:46.899Z,64.3845
2023-05-15T13:07:44.915Z,58.3247
2023-05-15T13:08:47.113Z,66.1101
2023-05-15T13:09:48.758Z,71.0588
2023-05-15T13:10:49.374Z,67.8326
2023-05-15T13:11:50.589Z,68.0614
2023-05-15T13:12:52.490Z,70.6471
2023-05-15T13:13:53.233Z,68.9731
2023-05-15T13:14:55.096Z,67.8291
2023-05-15T13:15:56.413Z,69.3174
2023-05-15T13:16:57.453Z,69.5490
2023-05-15T13:17:58.216Z,68.0043
2023-05-15T13:18:59.526Z,67.1196
2023-05-15T13:20:01.134Z,66.7531
2023-05-15T13:21:01.536Z,66.7554
2023-05-15T13:22:03.032Z,68.0343
2023-05-15T13:23:05.084Z,66.8492
2023-05-15T13:24:05.511Z,65.1926
2023-05-15T13:25:07.021Z,65.0683
2023-05-15T13:26:08.789Z,63.3999
2023-05-15T13:27:10.376Z,66.4030
2023-05-15T13:28:10.784Z,66.3428
2023-05-15T13:29:11.971Z,70.9259